Time;durP1;ratioP1;P1;durP2;ratioP2;P2;SDS_P1;SDS_P2;PMS_P1;PMS_P2;Temp;Humidity;BMP_temperature;BMP_pressure;BME280_temperature;BME280_humidity;BME280_pressure;Samples;Min_cycle;Max_cycle;Signal;HPM_P1;HPM_P2
2023/12/18 00:01:37;;;;;;;13.65;9.30;;;7.80;99.90;;;;;;5037360;28;20535;-86
2023/12/18 00:04:03;;;;;;;13.75;9.73;;;7.80;99.90;;;;;;5036673;28;20037;-85
2023/12/18 00:06:32;;;;;;;15.95;9.30;;;7.80;99.90;;;;;;5053572;28;20049;-85
2023/12/18 00:08:57;;;;;;;15.43;9.88;;;7.80;99.90;;;;;;5053445;28;20017;-85
2023/12/18 00:11:26;;;;;;;12.50;9.55;;;7.80;99.90;;;;;;5053805;28;20465;-85
2023/12/18 00:13:51;;;;;;;15.13;9.23;;;7.80;99.90;;;;;;5053896;28;20048;-85
2023/12/18 00:16:17;;;;;;;14.45;9.77;;;7.80;99.90;;;;;;5053504;28;20024;-83
2023/12/18 00:18:43;;;;;;;15.77;10.07;;;7.80;99.90;;;;;;5053433;28;20108;-86
2023/12/18 00:21:08;;;;;;;16.88;11.02;;;7.80;99.90;;;;;;5036742;28;20037;-85
2023/12/18 00:23:34;;;;;;;15.32;9.68;;;7.80;99.90;;;;;;5054789;28;20033;-85
2023/12/18 00:26:00;;;;;;;12.80;9.70;;;7.80;99.90;;;;;;5054064;28;20036;-86
2023/12/18 00:28:25;;;;;;;13.95;9.90;;;7.80;99.90;;;;;;5053762;28;20033;-85
2023/12/18 00:30:51;;;;;;;17.98;9.90;;;7.80;99.90;;;;;;5053585;28;20476;-85
2023/12/18 00:33:17;;;;;;;15.48;10.13;;;7.80;99.90;;;;;;5054024;28;20473;-85
2023/12/18 00:35:42;;;;;;;21.08;10.35;;;7.80;99.90;;;;;;5053886;28;20124;-86
2023/12/18 00:38:08;;;;;;;16.65;9.57;;;7.80;99.90;;;;;;5053627;28;20381;-87
2023/12/18 00:40:33;;;;;;;15.80;9.48;;;7.80;99.90;;;;;;5037997;28;20461;-85
2023/12/18 00:42:59;;;;;;;15.18;10.07;;;7.90;99.90;;;;;;5055362;28;20048;-86
2023/12/18 00:45:25;;;;;;;15.85;10.38;;;7.90;99.90;;;;;;5057668;28;20514;-86
2023/12/18 00:47:51;;;;;;;16.77;10.02;;;7.80;99.90;;;;;;5075753;28;20035;-85
2023/12/18 00:50:17;;;;;;;13.68;9.75;;;7.80;99.90;;;;;;5063600;28;20075;-86
2023/12/18 00:52:42;;;;;;;13.82;10.55;;;7.80;99.90;;;;;;5064545;28;20029;-86
2023/12/18 00:55:08;;;;;;;16.00;10.02;;;7.80;99.90;;;;;;5051719;28;20017;-85
2023/12/18 00:57:34;;;;;;;15.38;9.85;;;7.80;99.90;;;;;;5072904;28;20009;-86
2023/12/18 01:00:00;;;;;;;17.48;11.38;;;7.80;99.90;;;;;;5073742;28;20033;-86
2023/12/18 01:02:26;;;;;;;18.58;10.60;;;7.80;99.90;;;;;;5059407;28;20115;-86
2023/12/18 01:04:51;;;;;;;14.60;9.73;;;7.80;99.90;;;;;;5052769;28;20052;-86
2023/12/18 01:07:17;;;;;;;17.40;9.93;;;7.80;99.90;;;;;;5054245;28;20060;-86
2023/12/18 01:09:43;;;;;;;17.35;10.55;;;7.80;99.90;;;;;;5052990;28;20025;-86
2023/12/18 01:12:09;;;;;;;19.50;10.43;;;7.90;99.90;;;;;;5052210;28;20034;-86
2023/12/18 01:14:34;;;;;;;15.85;9.35;;;7.90;99.90;;;;;;5036023;28;20504;-86
2023/12/18 01:17:03;;;;;;;14.82;10.15;;;7.90;99.90;;;;;;5052835;28;20056;-86
2023/12/18 01:19:29;;;;;;;14.90;9.52;;;7.90;99.90;;;;;;5035685;28;20473;-86
2023/12/18 01:21:54;;;;;;;15.85;9.95;;;8.00;99.90;;;;;;5052624;28;20083;-86
2023/12/18 01:24:20;;;;;;;19.73;11.27;;;7.90;99.90;;;;;;5052309;28;20103;-86
2023/12/18 01:26:46;;;;;;;17.10;10.98;;;8.00;99.90;;;;;;5036031;28;20078;-86
2023/12/18 01:29:11;;;;;;;12.18;9.57;;;8.00;99.90;;;;;;5052735;28;20029;-86
2023/12/18 01:31:38;;;;;;;16.52;10.48;;;8.00;99.90;;;;;;5052541;28;20032;-86
2023/12/18 01:34:04;;;;;;;15.52;10.55;;;8.00;99.90;;;;;;5052329;28;20032;-86
2023/12/18 01:36:30;;;;;;;15.90;10.50;;;8.00;99.90;;;;;;5052481;28;20025;-86
2023/12/18 01:38:55;;;;;;;13.13;9.95;;;8.00;99.90;;;;;;5035955;28;20033;-86
2023/12/18 01:41:21;;;;;;;16.48;10.20;;;8.00;99.90;;;;;;5036132;28;20025;-86
2023/12/18 01:43:47;;;;;;;15.70;9.98;;;8.00;99.90;;;;;;5035556;28;20025;-86
2023/12/18 01:46:18;;;;;;;15.60;9.73;;;8.00;99.90;;;;;;5035716;28;20033;-86
2023/12/18 01:48:44;;;;;;;17.45;11.23;;;8.00;99.90;;;;;;5051889;28;20067;-86
2023/12/18 01:51:12;;;;;;;18.55;10.52;;;8.00;99.90;;;;;;5052091;28;20025;-86
2023/12/18 01:53:43;;;;;;;16.80;10.43;;;8.00;99.90;;;;;;5051857;28;20032;-86
2023/12/18 01:56:10;;;;;;;17.42;10.10;;;8.00;99.90;;;;;;5052533;28;20040;-86
2023/12/18 01:58:37;;;;;;;15.70;10.68;;;8.00;99.90;;;;;;5053595;28;20040;-86
2023/12/18 02:01:03;;;;;;;14.52;10.00;;;8.00;99.90;;;;;;5052293;28;20032;-86
2023/12/18 02:03:30;;;;;;;18.67;10.68;;;8.00;99.90;;;;;;5036022;28;20032;-86
2023/12/18 02:06:00;;;;;;;19.80;11.15;;;8.00;99.90;;;;;;5039112;28;20448;-86
2023/12/18 02:08:25;;;;;;;16.50;10.43;;;8.00;99.90;;;;;;5056387;28;20033;-85
2023/12/18 02:10:55;;;;;;;15.30;10.38;;;8.00;99.90;;;;;;5039474;28;20494;-86
2023/12/18 02:13:21;;;;;;;16.33;10.02;;;8.10;99.90;;;;;;5056488;28;20150;-86
2023/12/18 02:15:47;;;;;;;12.18;10.10;;;8.10;99.90;;;;;;5056015;28;20465;-86
2023/12/18 02:18:13;;;;;;;14.77;10.60;;;8.10;99.90;;;;;;5056954;28;20075;-86
2023/12/18 02:20:42;;;;;;;16.75;10.75;;;8.10;99.90;;;;;;5059152;28;20021;-85
2023/12/18 02:23:09;;;;;;;14.20;9.23;;;8.20;99.90;;;;;;5077905;28;20019;-86
2023/12/18 02:25:34;;;;;;;19.70;10.80;;;8.20;99.90;;;;;;5080357;28;20209;-83
2023/12/18 02:28:03;;;;;;;16.08;10.20;;;8.20;99.90;;;;;;5080906;28;20032;-85
2023/12/18 02:30:28;;;;;;;17.15;10.65;;;8.20;99.90;;;;;;5072851;28;20056;-86
2023/12/18 02:32:54;;;;;;;15.75;10.32;;;8.20;99.90;;;;;;5056664;28;20385;-86
2023/12/18 02:35:20;;;;;;;18.58;10.95;;;8.20;99.90;;;;;;5056431;28;20040;-86
2023/12/18 02:37:48;;;;;;;16.48;10.60;;;8.20;99.90;;;;;;5038907;28;20040;-87
2023/12/18 02:40:14;;;;;;;15.63;10.68;;;8.20;99.90;;;;;;5039378;28;20036;-87
2023/12/18 02:42:40;;;;;;;16.17;10.55;;;8.20;99.90;;;;;;5038736;28;20029;-86
2023/12/18 02:45:06;;;;;;;14.10;10.05;;;8.20;99.90;;;;;;5038989;28;20074;-86
2023/12/18 02:47:32;;;;;;;15.80;10.32;;;8.20;99.90;;;;;;5055400;28;20040;-86
2023/12/18 02:49:57;;;;;;;17.48;10.70;;;8.20;99.90;;;;;;5055263;28;20033;-86
2023/12/18 02:52:23;;;;;;;17.02;11.13;;;8.20;99.90;;;;;;5055685;28;20052;-86
2023/12/18 02:54:49;;;;;;;11.90;9.02;;;8.20;99.90;;;;;;5038544;28;20037;-86
2023/12/18 02:57:15;;;;;;;16.48;10.30;;;8.20;99.90;;;;;;5055250;28;20029;-86
2023/12/18 02:59:40;;;;;;;16.30;10.00;;;8.20;99.90;;;;;;5071136;28;20025;-86
2023/12/18 03:02:06;;;;;;;15.55;10.30;;;8.20;99.90;;;;;;5055470;28;20056;-87
2023/12/18 03:04:32;;;;;;;18.77;10.73;;;8.20;99.90;;;;;;5038517;28;20033;-87
2023/12/18 03:06:57;;;;;;;15.38;10.10;;;8.30;99.90;;;;;;5038696;28;20041;-87
2023/12/18 03:09:23;;;;;;;19.10;10.27;;;8.20;99.90;;;;;;5038487;28;20427;-86
2023/12/18 03:11:49;;;;;;;15.07;9.70;;;8.30;99.90;;;;;;5054731;28;20029;-86
2023/12/18 03:14:14;;;;;;;14.73;10.57;;;8.30;99.90;;;;;;5038252;28;20040;-87
2023/12/18 03:16:40;;;;;;;18.98;9.48;;;8.30;99.90;;;;;;5053496;28;20037;-84
2023/12/18 03:19:06;;;;;;;14.90;10.45;;;8.30;99.90;;;;;;5055052;28;20017;-87
2023/12/18 03:21:32;;;;;;;14.25;9.90;;;8.30;99.90;;;;;;5054411;28;20032;-85
2023/12/18 03:23:58;;;;;;;17.40;10.10;;;8.30;99.90;;;;;;5054536;28;20039;-86
2023/12/18 03:26:24;;;;;;;13.85;10.32;;;8.30;99.90;;;;;;5055612;28;20070;-85
2023/12/18 03:28:50;;;;;;;16.35;10.88;;;8.30;99.90;;;;;;5055358;28;20028;-85
2023/12/18 03:31:16;;;;;;;16.20;11.35;;;8.30;99.90;;;;;;5056181;28;20032;-83
2023/12/18 03:33:41;;;;;;;15.38;10.65;;;8.30;99.90;;;;;;5054714;28;20108;-85
2023/12/18 03:36:08;;;;;;;15.10;10.65;;;8.30;99.90;;;;;;5054674;28;20473;-85
2023/12/18 03:38:34;;;;;;;15.68;10.73;;;8.30;99.90;;;;;;5038179;28;20059;-86
2023/12/18 03:41:00;;;;;;;14.55;9.80;;;8.30;99.90;;;;;;5054771;28;20029;-86
2023/12/18 03:43:26;;;;;;;15.55;10.63;;;8.30;99.90;;;;;;5054847;28;20472;-85
2023/12/18 03:45:52;;;;;;;16.00;11.05;;;8.30;99.90;;;;;;5039189;28;20029;-85
2023/12/18 03:48:19;;;;;;;18.20;10.80;;;8.30;99.90;;;;;;5059418;28;20052;-85
2023/12/18 03:50:45;;;;;;;14.68;10.10;;;8.40;99.90;;;;;;5078656;28;20032;-83
2023/12/18 03:53:11;;;;;;;16.55;11.55;;;8.40;99.90;;;;;;5062200;28;20076;-86
2023/12/18 03:55:38;;;;;;;16.25;11.05;;;8.30;99.90;;;;;;5095045;28;20017;-86
2023/12/18 03:58:04;;;;;;;17.73;11.55;;;8.30;99.90;;;;;;5066779;28;20029;-86
2023/12/18 04:00:29;;;;;;;16.10;11.65;;;8.30;99.90;;;;;;5038448;28;20126;-86
2023/12/18 04:02:55;;;;;;;15.73;11.02;;;8.30;99.90;;;;;;5054256;28;20117;-85
2023/12/18 04:05:23;;;;;;;15.93;10.60;;;8.30;99.90;;;;;;5055060;28;20045;-86
2023/12/18 04:07:49;;;;;;;15.23;10.98;;;8.40;99.90;;;;;;5054486;28;20373;-85
2023/12/18 04:10:15;;;;;;;16.23;11.30;;;8.40;99.90;;;;;;5037612;28;20037;-86
2023/12/18 04:12:41;;;;;;;17.42;11.27;;;8.40;99.90;;;;;;5055939;28;20118;-86
2023/12/18 04:15:07;;;;;;;20.00;12.18;;;8.40;99.90;;;;;;5056289;28;20033;-87
2023/12/18 04:17:33;;;;;;;18.83;11.77;;;8.50;99.90;;;;;;5059575;28;20036;-86
2023/12/18 04:19:59;;;;;;;16.20;11.60;;;8.40;99.90;;;;;;5056334;28;20025;-86
2023/12/18 04:22:24;;;;;;;17.20;11.55;;;8.40;99.90;;;;;;5056371;28;20072;-87
2023/12/18 04:24:50;;;;;;;17.10;11.10;;;8.40;99.90;;;;;;5054768;28;20033;-85
2023/12/18 04:27:19;;;;;;;18.60;12.15;;;8.40;99.90;;;;;;5055262;28;20025;-86
2023/12/18 04:29:44;;;;;;;17.48;12.30;;;8.40;99.90;;;;;;5056423;28;20018;-86
2023/12/18 04:32:10;;;;;;;18.30;11.23;;;8.30;99.90;;;;;;5054638;28;20032;-86
2023/12/18 04:34:35;;;;;;;19.27;11.00;;;8.30;99.90;;;;;;5055347;28;20115;-87
2023/12/18 04:37:01;;;;;;;15.95;11.70;;;8.40;99.90;;;;;;5055153;28;20029;-86
2023/12/18 04:39:27;;;;;;;17.15;11.23;;;8.30;99.90;;;;;;5037031;28;20021;-87
2023/12/18 04:41:53;;;;;;;17.30;11.20;;;8.30;99.90;;;;;;5037218;28;20029;-86
2023/12/18 04:44:23;;;;;;;17.23;11.90;;;8.40;99.90;;;;;;5053487;28;20124;-87
2023/12/18 04:46:48;;;;;;;14.93;11.23;;;8.40;99.90;;;;;;5036875;28;20120;-84
2023/12/18 04:49:14;;;;;;;19.95;11.90;;;8.40;99.90;;;;;;5037499;28;20132;-86
2023/12/18 04:51:42;;;;;;;17.42;11.63;;;8.40;99.90;;;;;;5037080;28;20083;-87
2023/12/18 04:54:09;;;;;;;16.70;11.35;;;8.30;99.90;;;;;;5037524;28;20029;-88
2023/12/18 04:56:34;;;;;;;17.30;11.90;;;8.40;99.90;;;;;;5054902;28;20024;-86
2023/12/18 04:59:00;;;;;;;18.60;12.07;;;8.30;99.90;;;;;;5053620;28;20035;-86
2023/12/18 05:01:26;;;;;;;15.40;11.18;;;8.40;99.90;;;;;;5053112;28;20056;-86
2023/12/18 05:03:51;;;;;;;17.85;11.48;;;8.30;99.90;;;;;;5054676;28;20457;-87
2023/12/18 05:06:28;;;;;;;18.83;11.55;;;8.30;99.90;;;;;;5053216;28;20053;-87
2023/12/18 05:08:55;;;;;;;18.13;12.50;;;8.30;99.90;;;;;;5053282;28;20072;-85
2023/12/18 05:11:22;;;;;;;16.92;11.85;;;8.30;99.90;;;;;;5054439;28;20115;-86
2023/12/18 05:13:48;;;;;;;16.23;12.00;;;8.30;99.90;;;;;;5055128;28;20029;-85
2023/12/18 05:16:15;;;;;;;20.38;12.68;;;8.30;99.90;;;;;;5072697;28;20246;-86
2023/12/18 05:25:33;;;;;;;17.58;12.18;;;8.30;99.90;;;;;;5035120;28;20868;-85
2023/12/18 05:27:59;;;;;;;18.65;12.57;;;8.30;99.90;;;;;;5036281;28;20128;-85
2023/12/18 05:30:27;;;;;;;20.98;13.30;;;8.30;99.90;;;;;;5052870;28;20040;-84
2023/12/18 05:32:53;;;;;;;19.92;13.88;;;8.30;99.90;;;;;;5036165;28;20025;-84
2023/12/18 05:35:18;;;;;;;17.77;13.38;;;8.30;99.90;;;;;;5052078;28;20032;-85
2023/12/18 05:37:44;;;;;;;19.67;12.32;;;8.30;99.90;;;;;;5051310;28;20020;-85
2023/12/18 05:40:10;;;;;;;17.58;12.93;;;8.30;99.90;;;;;;5034158;28;20025;-84
2023/12/18 05:42:43;;;;;;;21.30;13.40;;;8.40;99.90;;;;;;5052151;28;20024;-87
2023/12/18 05:45:09;;;;;;;23.73;13.50;;;8.40;99.90;;;;;;5036446;28;20041;-86
2023/12/18 05:47:35;;;;;;;18.23;12.57;;;8.40;99.90;;;;;;5052375;28;20110;-89
2023/12/18 05:50:04;;;;;;;20.40;12.93;;;8.40;99.90;;;;;;5035867;28;20029;-88
2023/12/18 05:52:29;;;;;;;19.95;14.27;;;8.40;99.90;;;;;;5052778;28;20386;-88
2023/12/18 05:54:55;;;;;;;19.40;13.75;;;8.40;99.90;;;;;;5052308;28;20036;-88
2023/12/18 05:57:21;;;;;;;22.20;14.20;;;8.40;99.90;;;;;;5053405;28;20109;-88
2023/12/18 05:59:46;;;;;;;17.58;13.90;;;8.40;99.90;;;;;;5052487;28;20389;-88
2023/12/18 06:02:12;;;;;;;20.35;14.10;;;8.40;99.90;;;;;;5052900;28;20231;-88
2023/12/18 06:04:41;;;;;;;19.90;13.55;;;8.40;99.90;;;;;;5052071;28;20132;-88
2023/12/18 06:07:10;;;;;;;19.15;13.50;;;8.40;99.90;;;;;;5036770;28;20033;-88
2023/12/18 06:09:36;;;;;;;21.98;13.27;;;8.30;99.90;;;;;;5052897;28;20021;-88
2023/12/18 06:12:04;;;;;;;18.10;13.20;;;8.40;99.90;;;;;;5052786;28;20472;-87
2023/12/18 06:14:30;;;;;;;16.88;13.18;;;8.40;99.90;;;;;;5053761;28;20060;-89
2023/12/18 06:16:58;;;;;;;20.55;13.32;;;8.40;99.90;;;;;;5052368;28;20029;-88
2023/12/18 06:19:24;;;;;;;18.50;14.05;;;8.40;99.90;;;;;;5053687;28;20025;-88
2023/12/18 06:21:50;;;;;;;21.67;13.77;;;8.40;99.90;;;;;;5052548;28;20036;-88
2023/12/18 06:24:15;;;;;;;24.45;15.63;;;8.40;99.90;;;;;;5052721;28;20033;-86
2023/12/18 06:26:41;;;;;;;20.10;13.95;;;8.40;99.90;;;;;;5052126;28;20029;-88
2023/12/18 06:29:07;;;;;;;23.63;14.30;;;8.40;99.90;;;;;;5052536;28;20112;-87
2023/12/18 06:31:33;;;;;;;17.15;13.20;;;8.40;99.90;;;;;;5035902;28;20033;-88
2023/12/18 06:33:59;;;;;;;18.08;13.25;;;8.40;99.90;;;;;;5052703;28;20464;-87
2023/12/18 06:36:25;;;;;;;18.80;13.55;;;8.40;99.90;;;;;;5035932;28;20032;-88
2023/12/18 06:38:50;;;;;;;21.25;13.88;;;8.40;99.90;;;;;;5068898;28;20029;-87
2023/12/18 06:41:16;;;;;;;23.80;15.05;;;8.40;99.90;;;;;;5054071;28;20070;-87
2023/12/18 06:43:42;;;;;;;21.73;14.10;;;8.40;99.90;;;;;;5038855;28;20476;-88
2023/12/18 06:46:08;;;;;;;22.95;15.00;;;8.40;99.90;;;;;;5077274;28;20017;-85
2023/12/18 06:48:34;;;;;;;21.10;14.68;;;8.40;99.90;;;;;;5059666;28;20080;-87
2023/12/18 06:51:02;;;;;;;19.60;14.82;;;8.40;99.90;;;;;;5078321;28;20013;-87
2023/12/18 06:53:28;;;;;;;19.85;13.73;;;8.40;99.90;;;;;;5070029;28;20029;-88
2023/12/18 06:55:55;;;;;;;22.63;15.15;;;8.40;99.90;;;;;;5056601;28;20087;-88
2023/12/18 06:58:21;;;;;;;20.20;14.20;;;8.40;99.90;;;;;;5056594;28;20021;-88
2023/12/18 07:00:46;;;;;;;20.63;13.85;;;8.40;99.90;;;;;;5039657;28;20125;-87
2023/12/18 07:03:15;;;;;;;24.00;14.02;;;8.40;99.90;;;;;;5055843;28;20380;-88
2023/12/18 07:05:42;;;;;;;20.02;14.32;;;8.40;99.90;;;;;;5056101;28;20057;-87
2023/12/18 07:08:10;;;;;;;22.90;14.20;;;8.50;99.90;;;;;;5072113;28;20033;-88
2023/12/18 07:10:35;;;;;;;21.50;13.98;;;8.50;99.90;;;;;;5055923;28;20064;-88
2023/12/18 07:13:01;;;;;;;20.98;14.93;;;8.50;99.90;;;;;;5055694;28;20484;-88
2023/12/18 07:15:27;;;;;;;19.73;13.68;;;8.50;99.90;;;;;;5055563;28;20025;-88
2023/12/18 07:17:53;;;;;;;22.48;13.85;;;8.50;99.90;;;;;;5072193;28;20033;-86
2023/12/18 07:20:21;;;;;;;20.20;14.55;;;8.50;99.90;;;;;;5055122;28;20048;-86
2023/12/18 07:22:47;;;;;;;21.58;14.70;;;8.50;99.90;;;;;;5055766;28;20115;-87
2023/12/18 07:25:12;;;;;;;17.88;13.20;;;8.50;99.90;;;;;;5056374;28;20488;-87
2023/12/18 07:27:38;;;;;;;20.98;13.73;;;8.50;99.90;;;;;;5055137;28;20435;-87
2023/12/18 07:30:04;;;;;;;20.20;14.40;;;8.50;99.90;;;;;;5038064;28;20025;-86
2023/12/18 07:32:35;;;;;;;17.17;12.63;;;8.50;99.90;;;;;;5071805;28;20468;-88
2023/12/18 07:35:06;;;;;;;19.47;13.50;;;8.50;99.90;;;;;;5056082;28;20116;-88
2023/12/18 07:37:32;;;;;;;21.38;14.43;;;8.50;99.90;;;;;;5039020;28;20029;-87
2023/12/18 07:39:58;;;;;;;18.45;12.93;;;8.50;99.90;;;;;;5055033;28;20057;-87
2023/12/18 07:42:25;;;;;;;19.95;14.68;;;8.50;99.90;;;;;;5055990;28;20029;-87
2023/12/18 07:44:51;;;;;;;22.92;13.13;;;8.50;99.90;;;;;;5054776;28;20033;-87
2023/12/18 07:47:16;;;;;;;22.42;14.50;;;8.50;99.90;;;;;;5054720;28;20120;-88
2023/12/18 07:49:42;;;;;;;22.90;14.18;;;8.50;99.90;;;;;;5054692;28;20052;-87
2023/12/18 07:52:08;;;;;;;19.08;14.50;;;8.50;99.90;;;;;;5054261;28;20412;-87
2023/12/18 07:54:34;;;;;;;19.17;13.88;;;8.50;99.90;;;;;;5055655;28;20100;-87
2023/12/18 07:57:00;;;;;;;23.70;14.68;;;8.40;99.90;;;;;;5055760;28;20445;-87
2023/12/18 07:59:27;;;;;;;19.83;13.43;;;8.40;99.90;;;;;;5054710;28;20500;-87
2023/12/18 08:01:53;;;;;;;23.10;15.02;;;8.50;99.90;;;;;;5053551;28;20032;-87
2023/12/18 08:04:19;;;;;;;22.20;14.45;;;8.50;99.90;;;;;;5054910;28;20017;-88
2023/12/18 08:06:47;;;;;;;21.42;14.25;;;8.50;99.90;;;;;;5038172;28;20053;-88
2023/12/18 08:09:15;;;;;;;20.55;13.98;;;8.50;99.90;;;;;;5054900;28;20033;-87
2023/12/18 08:11:41;;;;;;;20.67;14.15;;;8.50;99.90;;;;;;5056961;28;20021;-87
2023/12/18 08:14:06;;;;;;;20.92;13.82;;;8.50;99.90;;;;;;5079275;28;20043;-88
2023/12/18 08:16:35;;;;;;;19.88;13.60;;;8.50;99.90;;;;;;5062096;28;20025;-87
2023/12/18 08:19:01;;;;;;;22.23;14.10;;;8.50;99.90;;;;;;5078627;28;20009;-87
2023/12/18 08:21:27;;;;;;;19.60;12.57;;;8.50;99.90;;;;;;5060393;28;20013;-87
2023/12/18 08:23:53;;;;;;;19.67;13.93;;;8.60;99.90;;;;;;5074605;28;20028;-87
2023/12/18 08:26:19;;;;;;;20.98;14.15;;;8.50;99.90;;;;;;5056876;28;20025;-88
2023/12/18 08:28:47;;;;;;;21.00;13.60;;;8.50;99.90;;;;;;5054569;28;20159;-88
2023/12/18 08:31:13;;;;;;;19.65;14.00;;;8.50;99.90;;;;;;5054374;28;20032;-87
2023/12/18 08:33:39;;;;;;;21.00;14.15;;;8.60;99.90;;;;;;5070211;28;20021;-87
2023/12/18 08:36:05;;;;;;;23.52;15.95;;;8.50;99.90;;;;;;5053964;28;20036;-87
2023/12/18 08:38:33;;;;;;;20.42;13.52;;;8.60;99.90;;;;;;5054656;28;20116;-88
2023/12/18 08:40:58;;;;;;;20.75;13.38;;;8.60;99.90;;;;;;5054590;28;20372;-88
2023/12/18 08:43:24;;;;;;;24.40;14.15;;;8.60;99.90;;;;;;5037056;28;20154;-88
2023/12/18 08:45:50;;;;;;;22.58;14.98;;;8.60;99.90;;;;;;5053844;28;20039;-88
2023/12/18 08:48:16;;;;;;;20.30;13.98;;;8.70;99.90;;;;;;5037514;28;20115;-87
2023/12/18 08:50:43;;;;;;;21.38;13.57;;;8.70;99.90;;;;;;5053722;28;20059;-87
2023/12/18 08:53:09;;;;;;;22.80;14.93;;;8.70;99.90;;;;;;5053608;28;20070;-87
2023/12/18 08:55:38;;;;;;;20.25;14.43;;;8.70;99.90;;;;;;5052964;28;20021;-87
2023/12/18 08:58:10;;;;;;;20.60;14.27;;;8.70;99.90;;;;;;5037694;28;20029;-88
2023/12/18 09:00:38;;;;;;;22.85;14.70;;;8.70;99.90;;;;;;5037360;28;20037;-87
2023/12/18 09:03:04;;;;;;;21.10;14.02;;;8.70;99.90;;;;;;5053624;28;20082;-87
2023/12/18 09:05:33;;;;;;;19.65;13.35;;;8.80;99.90;;;;;;5069178;28;20137;-88
2023/12/18 09:08:00;;;;;;;21.00;13.75;;;8.80;99.90;;;;;;5053093;28;20029;-88
2023/12/18 09:10:25;;;;;;;19.58;13.65;;;8.80;99.90;;;;;;5036727;28;20029;-87
2023/12/18 09:12:52;;;;;;;19.00;12.90;;;8.80;99.90;;;;;;5053634;28;20032;-87
2023/12/18 09:15:18;;;;;;;23.23;13.77;;;8.80;99.90;;;;;;5036844;28;20129;-88
2023/12/18 09:17:44;;;;;;;20.80;14.05;;;8.90;99.90;;;;;;5053875;28;20096;-86
2023/12/18 09:20:10;;;;;;;23.25;14.45;;;8.90;99.90;;;;;;5053220;28;20425;-88
2023/12/18 09:22:36;;;;;;;19.15;13.40;;;8.90;99.90;;;;;;5053465;28;20021;-87
2023/12/18 09:25:03;;;;;;;22.98;15.18;;;8.90;99.90;;;;;;5054449;28;20029;-87
2023/12/18 09:27:28;;;;;;;19.33;13.25;;;9.00;99.90;;;;;;5036264;28;20033;-87
2023/12/18 09:29:54;;;;;;;19.73;12.75;;;8.90;99.90;;;;;;5053489;28;20035;-88
2023/12/18 09:32:20;;;;;;;21.00;13.85;;;8.90;99.90;;;;;;5036571;28;20025;-88
2023/12/18 09:34:46;;;;;;;19.60;13.98;;;9.00;99.90;;;;;;5053404;28;20419;-87
2023/12/18 09:37:12;;;;;;;21.80;13.80;;;8.90;99.90;;;;;;5053517;28;20071;-88
2023/12/18 09:39:40;;;;;;;23.73;14.15;;;8.90;99.90;;;;;;5053795;28;20044;-88
2023/12/18 09:42:09;;;;;;;18.20;13.15;;;8.90;99.90;;;;;;5074274;28;20005;-87
2023/12/18 09:44:36;;;;;;;20.65;13.93;;;9.00;99.90;;;;;;5061306;28;20024;-84
2023/12/18 09:47:06;;;;;;;21.02;14.07;;;8.90;99.90;;;;;;5077328;28;20019;-87
2023/12/18 09:49:35;;;;;;;21.63;14.82;;;9.00;99.90;;;;;;5068198;28;20419;-88
2023/12/18 09:52:08;;;;;;;24.33;15.32;;;9.00;99.90;;;;;;5053033;28;20021;-88
2023/12/18 09:54:49;;;;;;;20.75;14.35;;;9.00;99.90;;;;;;5053301;28;20025;-87
2023/12/18 09:57:26;;;;;;;;;;;9.00;99.90;;;;;;5053436;28;20037;-87
2023/12/18 09:59:53;;;;;;;21.75;14.18;;;9.00;99.90;;;;;;5052833;28;20421;-88
2023/12/18 10:02:39;;;;;;;21.52;14.38;;;9.10;99.90;;;;;;5052811;28;20380;-87
2023/12/18 10:11:30;;;;;;;18.75;13.27;;;9.10;99.90;;;;;;5053517;28;19912;-85
2023/12/18 10:13:56;;;;;;;24.20;14.10;;;9.10;99.90;;;;;;5069627;28;20041;-88
2023/12/18 10:16:22;;;;;;;20.30;14.68;;;9.10;99.90;;;;;;5052724;28;20028;-87
2023/12/18 10:18:49;;;;;;;21.42;14.25;;;9.10;99.90;;;;;;5052163;28;20056;-88
2023/12/18 10:21:22;;;;;;;21.08;14.45;;;9.10;99.90;;;;;;5052554;28;20021;-88
2023/12/18 10:23:48;;;;;;;22.98;14.90;;;9.20;99.90;;;;;;5052120;28;20031;-88
2023/12/18 10:36:33;;;;;;;20.63;14.00;;;9.20;99.90;;;;;;4979093;28;20573;-88
2023/12/18 10:39:04;;;;;;;18.85;12.98;;;9.20;99.90;;;;;;5003328;28;20033;-87
2023/12/18 10:41:46;;;;;;;17.80;12.93;;;9.30;99.90;;;;;;5019635;28;20121;-87
2023/12/18 10:44:14;;;;;;;17.75;11.98;;;9.30;99.90;;;;;;5019791;28;20030;-88
2023/12/18 10:46:44;;;;;;;19.92;13.68;;;9.40;99.90;;;;;;5025970;28;20067;-87
2023/12/18 10:49:15;;;;;;;20.95;13.90;;;9.40;99.90;;;;;;5062364;28;20032;-88
2023/12/18 10:51:42;;;;;;;21.00;14.02;;;9.50;99.90;;;;;;5061905;28;20067;-88
2023/12/18 10:54:09;;;;;;;19.98;14.07;;;9.50;99.90;;;;;;5061917;28;20031;-87
2023/12/18 10:56:38;;;;;;;22.75;15.43;;;9.60;99.90;;;;;;5061875;28;20025;-86
2023/12/18 10:59:06;;;;;;;18.42;13.70;;;9.60;99.90;;;;;;5063414;28;20046;-88
2023/12/18 11:01:35;;;;;;;18.70;13.32;;;9.60;99.90;;;;;;5064437;28;20100;-89
2023/12/18 11:04:01;;;;;;;19.90;14.32;;;9.60;99.90;;;;;;5063923;28;20037;-87
2023/12/18 11:06:32;;;;;;;21.70;13.68;;;9.60;99.90;;;;;;5065446;28;20489;-87
2023/12/18 11:08:57;;;;;;;22.35;13.10;;;9.60;99.90;;;;;;5068376;28;20053;-87
2023/12/18 11:11:27;;;;;;;20.02;14.15;;;9.70;99.90;;;;;;5093380;28;20029;-87
2023/12/18 11:14:17;;;;;;;20.08;13.13;;;9.70;99.90;;;;;;5078755;28;20035;-87
2023/12/18 11:17:37;;;;;;;21.58;14.90;;;9.70;99.90;;;;;;5078351;28;20017;-87
2023/12/18 11:20:30;;;;;;;20.35;13.07;;;9.80;99.90;;;;;;5065569;28;20033;-87
2023/12/18 11:23:03;;;;;;;23.27;14.43;;;9.70;99.90;;;;;;5056916;28;20044;-88
2023/12/18 11:25:50;;;;;;;24.40;15.43;;;9.70;99.90;;;;;;5056246;28;20029;-88
2023/12/18 11:28:16;;;;;;;20.45;13.95;;;9.70;99.90;;;;;;5055772;28;20033;-88
2023/12/18 11:30:45;;;;;;;19.77;14.63;;;9.70;99.90;;;;;;5056861;28;20029;-87
2023/12/18 11:33:14;;;;;;;23.33;13.85;;;9.70;99.90;;;;;;5055700;28;20104;-88
2023/12/18 11:35:45;;;;;;;21.33;13.38;;;9.70;99.90;;;;;;5055560;28;20029;-84
2023/12/18 11:38:18;;;;;;;24.60;15.25;;;9.80;99.90;;;;;;5053775;28;20017;-88
2023/12/18 11:40:48;;;;;;;20.35;12.68;;;9.70;99.90;;;;;;5054977;28;20028;-88
2023/12/18 11:43:33;;;;;;;19.42;13.65;;;9.70;99.90;;;;;;5054988;28;20094;-88
2023/12/18 11:46:00;;;;;;;21.08;13.23;;;9.80;99.90;;;;;;5055239;28;20021;-88
2023/12/18 11:48:26;;;;;;;20.75;14.15;;;9.70;99.90;;;;;;5054710;28;20020;-87
2023/12/18 11:51:05;;;;;;;20.75;14.43;;;9.70;99.90;;;;;;5054482;28;20021;-88
2023/12/18 11:53:35;;;;;;;22.35;14.15;;;9.70;99.90;;;;;;5055659;28;20083;-89
2023/12/18 11:56:08;;;;;;;19.50;13.57;;;9.70;99.90;;;;;;5055405;28;20029;-86
2023/12/18 11:58:38;;;;;;;22.65;14.70;;;9.70;99.90;;;;;;5054297;28;20052;-88
2023/12/18 12:01:07;;;;;;;22.10;12.90;;;9.70;99.90;;;;;;5054584;28;20035;-87
2023/12/18 12:03:33;;;;;;;21.10;13.32;;;9.70;99.90;;;;;;5054457;28;20071;-88
2023/12/18 12:06:00;;;;;;;20.85;13.27;;;9.70;99.90;;;;;;5053879;28;20136;-88
2023/12/18 12:08:26;;;;;;;18.35;13.02;;;9.80;99.90;;;;;;5054402;28;20033;-86
2023/12/18 12:10:55;;;;;;;19.98;12.60;;;9.80;99.90;;;;;;5054059;28;20017;-88
2023/12/18 12:13:26;;;;;;;21.98;13.85;;;9.80;99.90;;;;;;5054464;28;20021;-87
2023/12/18 12:15:58;;;;;;;19.88;13.10;;;9.80;99.90;;;;;;5055490;28;20025;-87
2023/12/18 12:18:29;;;;;;;20.35;13.32;;;9.80;99.90;;;;;;5054986;28;20021;-87
2023/12/18 12:20:56;;;;;;;22.60;13.13;;;9.80;99.90;;;;;;5058334;28;20029;-88
2023/12/18 12:23:25;;;;;;;19.13;13.73;;;9.80;99.90;;;;;;5056010;28;20022;-88
2023/12/18 12:25:52;;;;;;;18.83;12.82;;;9.70;99.90;;;;;;5055930;28;20033;-88
2023/12/18 12:28:20;;;;;;;20.73;13.15;;;9.70;99.90;;;;;;5054561;28;20043;-87
2023/12/18 12:30:53;;;;;;;19.80;13.27;;;9.70;99.90;;;;;;5037846;28;20037;-86
2023/12/18 12:33:19;;;;;;;19.23;14.15;;;9.80;99.90;;;;;;5037861;28;20052;-87
2023/12/18 12:35:45;;;;;;;18.38;13.30;;;9.80;99.90;;;;;;5037653;28;20065;-87
2023/12/18 12:38:11;;;;;;;20.98;12.80;;;9.80;99.90;;;;;;5056152;28;20029;-88
2023/12/18 12:40:37;;;;;;;21.83;14.20;;;9.80;99.90;;;;;;5047776;28;20039;-87
2023/12/18 12:49:29;;;;;;;22.92;14.20;;;9.80;99.90;;;;;;5064535;28;20094;-88
2023/12/18 12:51:56;;;;;;;17.83;13.60;;;9.80;99.90;;;;;;5053891;28;20021;-87
2023/12/18 12:54:24;;;;;;;17.73;12.93;;;9.80;99.90;;;;;;5053592;28;20017;-87
2023/12/18 12:56:50;;;;;;;19.98;12.85;;;9.80;99.90;;;;;;5053410;28;20033;-87
2023/12/18 12:59:16;;;;;;;21.73;13.07;;;9.80;99.90;;;;;;5053014;28;20036;-87
2023/12/18 13:01:42;;;;;;;15.98;10.95;;;9.80;99.90;;;;;;5054352;28;20025;-88
2023/12/18 13:04:08;;;;;;;19.65;12.55;;;9.80;99.90;;;;;;5036743;28;20052;-87
2023/12/18 13:06:33;;;;;;;18.15;13.10;;;9.80;99.90;;;;;;5053130;28;20049;-87
2023/12/18 13:09:01;;;;;;;18.80;12.25;;;9.80;99.90;;;;;;5036452;28;20025;-87